Mamiasy — SX0417 — position and weather

sailwx.info

Track history (hours):
 
Tides and Currents Weather Stations Pressure Air Temp Water Temp Dewpoint Dewpoint Depression Visibility Wind Speed Wind Dir Waves Ship Positions

Mamiasy

Last reported at 2018-Jun-12 08:38 UTC. Time now 2018-Jun-17 22:08 UTC.
Position N 37°22' E 026°44'.

Length 13 m; draft 2.2 m.

Type: Sailing vessel. MMSI: 237435300.

Date/timePositionNaut miles runAvg speedWind from/ knotsBaromVisibWave heightAir tempDewpointWater temp
2018-Jun-12 08:38N 37°22' E 026°44'2 0.1
2018-Jun-11 11:18N 37°20' E 026°42'14 0.3
2018-Jun-09 16:12N 37°08' E 026°51'0 0.0
2018-Jun-09 16:00N 37°08' E 026°51'0 0.6
2018-Jun-09 15:28N 37°08' E 026°51'0 0.3
2018-Jun-09 14:28N 37°08' E 026°51'0 0.0
2018-Jun-09 13:58N 37°08' E 026°51'0 0.0
2018-Jun-09 13:30N 37°08' E 026°51'0 0.0
2018-Jun-09 13:00N 37°08' E 026°51'0 0.0
2018-Jun-09 12:30N 37°08' E 026°51'0 0.0
2018-Jun-09 12:00N 37°08' E 026°51'0 0.0
2018-Jun-09 11:30N 37°08' E 026°51'0 0.0
2018-Jun-09 11:00N 37°08' E 026°51'  
2018-Jun-06 08:44N 36°58' E 026°53'1 6.2
2018-Jun-06 08:30N 36°57' E 026°53'8 6.3
2018-Jun-06 07:12N 36°48' E 026°54'9 5.8
2018-Jun-06 05:40N 36°40' E 026°58'1 6.7
2018-Jun-06 05:30N 36°40' E 026°59'3 6.1
2018-Jun-06 05:00N 36°39' E 027°03'  
Track history (hours):
 
Tides and Currents Weather Stations Pressure Air Temp Water Temp Dewpoint Dewpoint Depression Visibility Wind Speed Wind Dir Waves Ship Positions

Mamiasy

Last reported at 2018-Jun-12 08:38 UTC. Time now 2018-Jun-17 22:08 UTC.
Position N 37°22' E 026°44'.

Length 13 m; draft 2.2 m.

Type: Sailing vessel. MMSI: 237435300.

Date/timePositionNaut miles runAvg speedWind from/ knotsBaromVisibWave heightAir tempDewpointWater temp
2018-Jun-12 08:38N 37°22' E 026°44'2 0.1
2018-Jun-11 11:18N 37°20' E 026°42'14 0.3
2018-Jun-09 16:12N 37°08' E 026°51'0 0.0
2018-Jun-09 16:00N 37°08' E 026°51'0 0.6
2018-Jun-09 15:28N 37°08' E 026°51'0 0.3
2018-Jun-09 14:28N 37°08' E 026°51'0 0.0
2018-Jun-09 13:58N 37°08' E 026°51'0 0.0
2018-Jun-09 13:30N 37°08' E 026°51'0 0.0
2018-Jun-09 13:00N 37°08' E 026°51'0 0.0
2018-Jun-09 12:30N 37°08' E 026°51'0 0.0
2018-Jun-09 12:00N 37°08' E 026°51'0 0.0
2018-Jun-09 11:30N 37°08' E 026°51'0 0.0
2018-Jun-09 11:00N 37°08' E 026°51'  
2018-Jun-06 08:44N 36°58' E 026°53'1 6.2
2018-Jun-06 08:30N 36°57' E 026°53'8 6.3
2018-Jun-06 07:12N 36°48' E 026°54'9 5.8
2018-Jun-06 05:40N 36°40' E 026°58'1 6.7
2018-Jun-06 05:30N 36°40' E 026°59'3 6.1
2018-Jun-06 05:00N 36°39' E 027°03'  

Dump ship's entire track history